createdAt,value
2019-04-03T00:03:24.106Z,14.12
2019-04-03T00:06:12.905Z,13.56
2019-04-03T00:09:01.724Z,14.16
2019-04-03T00:11:50.527Z,14.15
2019-04-03T00:14:42.409Z,14.11
2019-04-03T00:17:30.342Z,12.98
2019-04-03T00:20:20.742Z,13.99
2019-04-03T00:23:09.624Z,13.74
2019-04-03T00:25:58.449Z,13.35
2019-04-03T00:28:40.278Z,12.09
2019-04-03T00:31:29.352Z,13.26
2019-04-03T00:37:27.371Z,12.93
2019-04-03T00:40:16.253Z,13.12
2019-04-03T00:43:05.063Z,13.19
2019-04-03T00:45:54.628Z,13.09
2019-04-03T00:48:44.436Z,11.83
2019-04-03T00:51:33.329Z,12.87
2019-04-03T00:54:22.256Z,12.26
2019-04-03T00:57:11.060Z,12.37
2019-04-03T00:59:59.859Z,11.31
2019-04-03T01:02:48.749Z,12.75
2019-04-03T01:05:37.548Z,11.53
2019-04-03T01:08:29.035Z,12.89
2019-04-03T01:11:16.968Z,12.87
2019-04-03T01:14:24.949Z,11.34
2019-04-03T01:17:13.768Z,12.51
2019-04-03T01:23:29.599Z,12.75
2019-04-03T01:26:18.415Z,11.50
2019-04-03T01:28:59.843Z,12.05
2019-04-03T01:32:07.693Z,12.46
2019-04-03T01:34:56.483Z,11.78
2019-04-03T01:37:45.501Z,12.19
2019-04-03T01:40:35.886Z,12.56
2019-04-03T01:43:24.659Z,11.21
2019-04-03T01:46:13.593Z,11.54
2019-04-03T01:49:02.471Z,12.78
2019-04-03T01:51:51.368Z,12.58
2019-04-03T01:54:40.304Z,12.56
2019-04-03T01:57:29.233Z,12.55
2019-04-03T02:03:26.167Z,11.25
2019-04-03T02:06:15.153Z,12.53
2019-04-03T02:12:19.710Z,11.01
2019-04-03T02:15:09.653Z,12.42
2019-04-03T02:18:19.336Z,12.41
2019-04-03T02:21:08.680Z,11.78
2019-04-03T02:23:57.576Z,11.22
2019-04-03T02:26:46.485Z,12.38
2019-04-03T02:29:28.067Z,12.48
2019-04-03T02:32:16.892Z,12.51
2019-04-03T02:35:26.595Z,12.53
2019-04-03T02:38:15.419Z,11.90
2019-04-03T02:41:05.183Z,12.66
2019-04-03T02:43:54.754Z,12.51
2019-04-03T02:46:43.557Z,12.68
2019-04-03T02:49:32.386Z,12.43
2019-04-03T02:52:24.074Z,13.19
2019-04-03T02:55:11.995Z,11.97
2019-04-03T02:58:00.818Z,13.48
2019-04-03T03:00:49.635Z,13.49
2019-04-03T03:03:38.426Z,13.29
2019-04-03T03:06:27.309Z,12.13
2019-04-03T03:09:16.300Z,13.31
2019-04-03T03:12:05.190Z,13.00
2019-04-03T03:14:54.059Z,12.35
2019-04-03T03:17:42.982Z,13.20
2019-04-03T03:20:32.148Z,11.66
2019-04-03T03:23:23.120Z,12.25
2019-04-03T03:26:12.065Z,13.03
2019-04-03T03:28:55.747Z,13.08
2019-04-03T03:32:01.412Z,12.88
2019-04-03T03:34:52.055Z,11.34
2019-04-03T03:37:26.686Z,11.30
2019-04-03T03:40:16.826Z,11.24
2019-04-03T03:43:06.777Z,12.35
2019-04-03T03:45:56.880Z,11.78
2019-04-03T03:48:47.239Z,11.23
2019-04-03T03:51:36.068Z,12.05
2019-04-03T04:01:08.340Z,12.56
2019-04-03T04:03:57.195Z,12.10
2019-04-03T04:06:46.018Z,11.89
2019-04-03T04:09:34.827Z,12.01
2019-04-03T04:12:24.320Z,11.89
2019-04-03T04:15:14.524Z,10.41
2019-04-03T04:18:24.230Z,11.94
2019-04-03T04:21:13.597Z,12.11
2019-04-03T04:24:02.391Z,10.78
2019-04-03T04:26:51.293Z,12.37
2019-04-03T04:29:33.222Z,11.11
2019-04-03T04:32:22.133Z,12.27
2019-04-03T04:35:12.511Z,12.41
2019-04-03T04:38:01.324Z,12.28
2019-04-03T04:41:09.219Z,12.26
2019-04-03T04:43:58.355Z,12.46
2019-04-03T04:46:47.162Z,12.58
2019-04-03T04:49:35.966Z,12.56
2019-04-03T04:52:27.131Z,12.69
2019-04-03T04:55:15.313Z,11.28
2019-04-03T04:58:04.907Z,12.72
2019-04-03T05:00:54.659Z,11.13
2019-04-03T05:03:43.469Z,11.76
2019-04-03T05:06:32.293Z,12.68
2019-04-03T05:09:21.273Z,12.72
2019-04-03T05:12:11.640Z,12.63
2019-04-03T05:15:00.435Z,11.80
2019-04-03T05:17:50.622Z,11.93
2019-04-03T05:20:39.854Z,12.85
2019-04-03T05:29:11.224Z,12.92
2019-04-03T05:32:00.135Z,12.95
2019-04-03T05:34:49.107Z,13.05
2019-04-03T05:37:39.522Z,11.71
2019-04-03T05:40:28.309Z,13.00
2019-04-03T05:43:17.131Z,13.11
2019-04-03T05:46:06.347Z,13.09
2019-04-03T05:48:56.533Z,13.14
2019-04-03T05:54:53.158Z,11.54
2019-04-03T05:57:44.936Z,11.97
2019-04-03T06:00:32.662Z,13.29
2019-04-03T06:03:37.636Z,13.16
2019-04-03T06:06:14.424Z,13.50
2019-04-03T06:12:19.404Z,13.74
2019-04-03T06:15:10.093Z,13.93
2019-04-03T06:20:34.509Z,13.91
2019-04-03T06:23:23.314Z,14.13
2019-04-03T06:26:12.288Z,14.10
2019-04-03T06:29:02.897Z,14.30
2019-04-03T06:31:53.192Z,14.47
2019-04-03T06:34:43.209Z,14.38
2019-04-03T06:37:32.601Z,13.52
2019-04-03T06:40:21.497Z,13.48
2019-04-03T06:43:10.377Z,14.93
2019-04-03T06:45:59.268Z,15.03
2019-04-03T06:48:48.190Z,15.05
2019-04-03T06:51:37.104Z,15.19
2019-04-03T06:54:26.014Z,15.39
2019-04-03T06:57:14.880Z,14.08
2019-04-03T07:03:18.964Z,15.39
2019-04-03T07:06:07.829Z,15.46
2019-04-03T07:08:56.721Z,15.48
2019-04-03T07:11:45.689Z,14.48
2019-04-03T07:14:34.590Z,15.82
2019-04-03T07:17:23.363Z,15.93
2019-04-03T07:20:15.384Z,15.86
2019-04-03T07:23:02.724Z,15.96
2019-04-03T07:25:51.533Z,16.02
2019-04-03T07:28:41.594Z,15.96
2019-04-03T07:31:24.423Z,15.94
2019-04-03T07:34:13.251Z,14.96
2019-04-03T07:37:02.084Z,15.92
2019-04-03T07:39:51.180Z,15.88
2019-04-03T07:42:40.020Z,15.83
2019-04-03T07:45:28.831Z,16.09
2019-04-03T07:48:17.666Z,14.66
2019-04-03T07:51:07.024Z,15.98
2019-04-03T07:53:56.082Z,15.27
2019-04-03T07:56:46.467Z,15.97
2019-04-03T07:59:35.276Z,15.82
2019-04-03T08:02:24.106Z,14.57
2019-04-03T08:05:13.089Z,16.04
2019-04-03T08:08:02.508Z,16.00
2019-04-03T08:10:52.873Z,16.17
2019-04-03T08:13:43.015Z,16.19
2019-04-03T08:16:31.831Z,16.39
2019-04-03T08:19:22.689Z,16.52
2019-04-03T08:22:11.563Z,16.78
2019-04-03T08:25:00.403Z,16.88
2019-04-03T08:27:49.443Z,16.78
2019-04-03T08:30:32.573Z,16.87
2019-04-03T08:33:26.025Z,16.64
2019-04-03T08:36:23.301Z,16.56
2019-04-03T08:39:02.440Z,16.58
2019-04-03T08:41:51.268Z,16.39
2019-04-03T08:44:40.084Z,16.19
2019-04-03T08:47:28.891Z,16.14
2019-04-03T08:50:17.796Z,16.25
2019-04-03T08:53:08.363Z,16.19
2019-04-03T08:55:57.147Z,16.15
2019-04-03T08:58:46.070Z,16.52
2019-04-03T09:01:37.023Z,15.51
2019-04-03T09:04:25.677Z,16.69
2019-04-03T09:07:15.938Z,15.52
2019-04-03T09:10:25.678Z,16.93
2019-04-03T09:13:17.737Z,16.14
2019-04-03T09:16:05.604Z,16.10
2019-04-03T09:18:56.006Z,15.65
2019-04-03T09:21:48.616Z,17.07
2019-04-03T09:24:35.343Z,15.89
2019-04-03T09:27:24.176Z,17.20
2019-04-03T09:30:10.655Z,17.25
2019-04-03T09:33:00.357Z,16.67
2019-04-03T09:35:49.991Z,17.96
2019-04-03T09:38:40.521Z,16.53
2019-04-03T09:41:29.572Z,17.58
2019-04-03T09:44:19.963Z,17.37
2019-04-03T09:47:08.784Z,17.20
2019-04-03T09:49:57.590Z,16.00
2019-04-03T09:52:49.961Z,17.42
2019-04-03T09:55:37.830Z,17.43
2019-04-03T09:58:27.553Z,16.54
2019-04-03T10:01:18.459Z,17.55
2019-04-03T10:04:06.896Z,17.86
2019-04-03T10:06:55.694Z,17.45
2019-04-03T10:09:38.942Z,17.34
2019-04-03T10:12:28.028Z,17.26
2019-04-03T10:15:18.727Z,17.08
2019-04-03T10:18:09.557Z,17.11
2019-04-03T10:20:58.021Z,16.30
2019-04-03T10:23:46.824Z,16.98
2019-04-03T10:26:35.642Z,15.39
2019-04-03T10:29:24.455Z,16.29
2019-04-03T10:32:13.291Z,15.88
2019-04-03T10:35:02.424Z,15.63
2019-04-03T10:37:53.019Z,15.78
2019-04-03T10:40:43.183Z,15.94
2019-04-03T10:43:32.073Z,16.04
2019-04-03T10:46:21.748Z,15.85
2019-04-03T10:49:10.638Z,14.79
2019-04-03T10:51:59.483Z,12.61
2019-04-03T10:54:49.991Z,13.42
2019-04-03T10:57:40.672Z,13.29
2019-04-03T11:00:29.908Z,13.33
2019-04-03T11:03:20.035Z,13.33
2019-04-03T11:06:08.830Z,13.29
2019-04-03T11:08:57.887Z,13.47
2019-04-03T11:11:42.970Z,13.57
2019-04-03T11:14:31.875Z,12.25
2019-04-03T11:17:21.014Z,13.58
2019-04-03T11:20:11.029Z,13.44
2019-04-03T11:23:06.874Z,13.19
2019-04-03T11:25:51.482Z,13.07
2019-04-03T11:28:41.817Z,11.99
2019-04-03T11:31:41.464Z,10.68
2019-04-03T11:34:28.423Z,12.21
2019-04-03T11:37:17.245Z,11.84
2019-04-03T11:40:26.975Z,11.47
2019-04-03T11:43:15.775Z,11.56
2019-04-03T11:46:04.984Z,10.28
2019-04-03T11:48:55.393Z,10.54
2019-04-03T11:51:45.730Z,12.19
2019-04-03T11:54:34.530Z,12.34
2019-04-03T11:57:26.128Z,12.28
2019-04-03T12:00:53.823Z,11.21
2019-04-03T12:03:42.916Z,13.08
2019-04-03T12:06:32.042Z,13.00
2019-04-03T12:09:22.258Z,13.44
2019-04-03T12:12:03.851Z,13.77
2019-04-03T12:14:52.660Z,13.69
2019-04-03T12:17:41.523Z,13.43
2019-04-03T12:20:30.525Z,14.07
2019-04-03T12:23:19.383Z,14.49
2019-04-03T12:26:10.513Z,14.67
2019-04-03T12:28:59.021Z,14.75
2019-04-03T12:31:49.250Z,14.40
2019-04-03T12:34:38.288Z,14.46
2019-04-03T12:37:28.603Z,14.42
2019-04-03T12:40:18.163Z,12.94
2019-04-03T12:43:06.989Z,13.02
2019-04-03T12:45:57.767Z,14.35
2019-04-03T12:48:46.569Z,13.78
2019-04-03T12:51:35.845Z,14.85
2019-04-03T12:54:26.059Z,14.95
2019-04-03T12:57:14.864Z,15.07
2019-04-03T13:03:19.357Z,15.13
2019-04-03T13:06:10.682Z,13.61
2019-04-03T13:08:59.834Z,13.52
2019-04-03T13:11:41.906Z,15.07
2019-04-03T13:14:32.668Z,15.06
2019-04-03T13:17:21.575Z,14.89
2019-04-03T13:20:11.878Z,15.05
2019-04-03T13:23:00.695Z,15.16
2019-04-03T13:25:50.991Z,13.85
2019-04-03T13:28:40.945Z,15.07
2019-04-03T13:31:30.885Z,15.03
2019-04-03T13:34:21.121Z,16.02
2019-04-03T13:37:09.933Z,16.70
2019-04-03T13:40:00.517Z,16.98
2019-04-03T13:42:49.664Z,17.04
2019-04-03T13:45:40.028Z,16.95
2019-04-03T13:48:30.795Z,16.96
2019-04-03T13:51:22.227Z,17.02
2019-04-03T13:54:12.702Z,17.06
2019-04-03T13:57:03.148Z,17.12
2019-04-03T13:59:55.389Z,17.06
2019-04-03T14:02:46.005Z,17.07
2019-04-03T14:05:34.924Z,16.49
2019-04-03T14:08:25.040Z,17.63
2019-04-03T14:11:14.011Z,17.27
2019-04-03T14:13:56.210Z,17.59
2019-04-03T14:16:45.444Z,18.77
2019-04-03T14:19:43.320Z,20.47
2019-04-03T14:22:26.207Z,21.44
2019-04-03T14:25:20.515Z,21.41
2019-04-03T14:28:05.810Z,22.06
2019-04-03T14:30:56.162Z,21.71
2019-04-03T14:33:46.787Z,21.05
2019-04-03T14:36:35.883Z,22.22
2019-04-03T14:39:26.160Z,21.01
2019-04-03T14:42:16.597Z,20.82
2019-04-03T14:45:26.301Z,19.25
2019-04-03T14:48:15.120Z,17.58
2019-04-03T14:51:06.324Z,16.03
2019-04-03T14:53:54.625Z,16.69
2019-04-03T14:56:43.423Z,16.65
2019-04-03T14:59:34.660Z,16.03
2019-04-03T15:02:23.804Z,16.93
2019-04-03T15:05:13.368Z,15.82
2019-04-03T15:08:04.918Z,16.54
2019-04-03T15:10:52.714Z,15.67
2019-04-03T15:13:34.387Z,14.97
2019-04-03T15:16:23.278Z,15.04
2019-04-03T15:19:14.103Z,16.25
2019-04-03T15:22:03.060Z,16.09
2019-04-03T15:24:53.175Z,15.99
2019-04-03T15:27:42.481Z,16.40
2019-04-03T15:30:32.955Z,16.91
2019-04-03T15:33:24.875Z,16.69
2019-04-03T15:36:13.668Z,16.53
2019-04-03T15:41:58.160Z,15.89
2019-04-03T15:44:46.968Z,15.89
2019-04-03T15:47:39.098Z,16.10
2019-04-03T15:50:28.352Z,15.61
2019-04-03T15:53:17.065Z,15.89
2019-04-03T15:56:05.903Z,15.47
2019-04-03T15:58:55.042Z,15.39
2019-04-03T16:01:45.689Z,15.13
2019-04-03T16:04:35.994Z,14.62
2019-04-03T16:07:25.270Z,14.47
2019-04-03T16:10:15.473Z,14.37
2019-04-03T16:12:56.830Z,14.31
2019-04-03T16:16:05.140Z,14.45
2019-04-03T16:18:53.960Z,13.24
2019-04-03T16:21:42.807Z,14.23
2019-04-03T16:24:31.569Z,14.02
2019-04-03T16:27:20.607Z,14.53
2019-04-03T16:30:14.222Z,14.28
2019-04-03T16:33:04.365Z,14.45
2019-04-03T16:38:46.960Z,14.27
2019-04-03T16:41:37.702Z,14.15
2019-04-03T16:44:27.461Z,12.54
2019-04-03T16:47:17.231Z,13.91
2019-04-03T16:50:27.319Z,13.89
2019-04-03T16:53:16.136Z,13.54
2019-04-03T16:56:06.564Z,13.09
2019-04-03T16:58:55.780Z,13.23
2019-04-03T17:01:46.337Z,13.16
2019-04-03T17:04:37.584Z,12.04
2019-04-03T17:07:26.986Z,13.23
2019-04-03T17:10:15.941Z,13.46
2019-04-03T17:12:58.036Z,12.91
2019-04-03T17:15:46.852Z,13.54
2019-04-03T17:18:35.653Z,12.22
2019-04-03T17:21:27.292Z,13.77
2019-04-03T17:24:17.375Z,12.33
2019-04-03T17:27:05.763Z,13.75
2019-04-03T17:29:56.421Z,13.81
2019-04-03T17:35:39.657Z,13.58
2019-04-03T17:38:31.516Z,13.71
2019-04-03T17:41:19.001Z,12.11
2019-04-03T17:44:07.812Z,13.41
2019-04-03T17:46:56.629Z,13.24
2019-04-03T17:49:45.435Z,13.22
2019-04-03T17:52:36.044Z,13.22
2019-04-03T17:55:24.774Z,13.17
2019-04-03T17:58:16.414Z,11.79
2019-04-03T18:00:44.462Z,13.03
2019-04-03T18:03:33.304Z,12.97
2019-04-03T18:06:22.559Z,13.02
2019-04-03T18:09:11.442Z,12.94
2019-04-03T18:12:00.306Z,11.63
2019-04-03T18:14:42.783Z,12.24
2019-04-03T18:17:31.804Z,12.09
2019-04-03T18:20:22.145Z,10.43
2019-04-03T18:23:10.961Z,12.16
2019-04-03T18:26:00.282Z,11.64
2019-04-03T18:28:50.308Z,12.05
2019-04-03T18:31:39.127Z,11.87
2019-04-03T18:34:27.964Z,11.66
2019-04-03T18:37:16.786Z,11.70
2019-04-03T18:40:24.942Z,11.72
2019-04-03T18:43:13.741Z,11.64
2019-04-03T18:46:02.574Z,11.49
2019-04-03T18:48:54.624Z,11.51
2019-04-03T18:51:41.912Z,10.86
2019-04-03T18:54:30.744Z,11.83
2019-04-03T18:57:19.556Z,11.42
2019-04-03T19:00:28.848Z,10.51
2019-04-03T19:03:18.218Z,11.53
2019-04-03T19:06:07.036Z,11.34
2019-04-03T19:08:55.850Z,11.21
2019-04-03T19:11:44.657Z,10.97
2019-04-03T19:14:27.541Z,11.25
2019-04-03T19:17:16.802Z,11.44
2019-04-03T19:20:27.040Z,11.37
2019-04-03T19:23:15.846Z,11.39
2019-04-03T19:26:04.679Z,11.18
2019-04-03T19:28:53.476Z,10.94
2019-04-03T19:31:42.319Z,11.02
2019-04-03T19:34:31.132Z,11.32
2019-04-03T19:37:19.925Z,10.54
2019-04-03T19:43:37.204Z,9.92
2019-04-03T19:46:26.013Z,10.93
2019-04-03T19:49:14.808Z,10.89
2019-04-03T19:52:03.604Z,10.98
2019-04-03T19:54:52.417Z,10.74
2019-04-03T19:57:41.276Z,10.61
2019-04-03T20:00:30.129Z,10.61
2019-04-03T20:03:18.950Z,10.68
2019-04-03T20:05:50.871Z,9.59
2019-04-03T20:08:38.979Z,10.81
2019-04-03T20:11:27.801Z,10.54
2019-04-03T20:14:11.285Z,10.27
2019-04-03T20:16:59.944Z,10.77
2019-04-03T20:19:48.746Z,9.30
2019-04-03T20:22:18.220Z,8.84
2019-04-03T20:25:07.268Z,10.54
2019-04-03T20:27:57.070Z,10.48
2019-04-03T20:30:46.675Z,10.70
2019-04-03T20:33:35.506Z,10.49
2019-04-03T20:36:24.303Z,10.09
2019-04-03T20:39:13.139Z,10.40
2019-04-03T20:42:03.460Z,10.38
2019-04-03T20:44:52.580Z,10.31
2019-04-03T20:47:41.631Z,10.33
2019-04-03T20:50:30.468Z,10.28
2019-04-03T20:53:19.379Z,10.35
2019-04-03T20:56:08.175Z,9.48
2019-04-03T20:58:56.969Z,10.21
2019-04-03T21:01:45.947Z,10.20
2019-04-03T21:04:34.749Z,10.59
2019-04-03T21:07:24.477Z,10.58
2019-04-03T21:10:14.384Z,10.43
2019-04-03T21:13:03.201Z,10.36
2019-04-03T21:15:52.388Z,10.47
2019-04-03T21:18:42.604Z,10.47
2019-04-03T21:21:31.456Z,10.50
2019-04-03T21:24:20.248Z,10.72
2019-04-03T21:27:09.442Z,10.31
2019-04-03T21:29:59.579Z,8.46
2019-04-03T21:32:48.394Z,10.01
2019-04-03T21:35:37.189Z,9.74
2019-04-03T21:38:26.013Z,8.42
2019-04-03T21:41:14.811Z,9.62
2019-04-03T21:44:03.626Z,8.53
2019-04-03T21:46:52.445Z,9.87
2019-04-03T21:49:41.244Z,10.08
2019-04-03T21:52:30.062Z,9.89
2019-04-03T21:55:18.964Z,8.66
2019-04-03T21:58:08.934Z,9.99
2019-04-03T22:01:19.250Z,8.76
2019-04-03T22:04:08.130Z,8.61
2019-04-03T22:06:57.871Z,10.13
2019-04-03T22:09:40.343Z,9.81
2019-04-03T22:12:29.214Z,8.25
2019-04-03T22:15:18.038Z,8.51
2019-04-03T22:18:07.079Z,9.54
2019-04-03T22:20:56.100Z,9.90
2019-04-03T22:23:44.879Z,9.29
2019-04-03T22:26:33.710Z,8.08
2019-04-03T22:29:22.623Z,9.94
2019-04-03T22:32:11.438Z,8.39
2019-04-03T22:35:01.019Z,9.42
2019-04-03T22:37:50.770Z,9.39
2019-04-03T22:40:40.731Z,10.14
2019-04-03T22:43:30.103Z,9.30
2019-04-03T22:46:21.763Z,9.55
2019-04-03T22:49:09.423Z,9.66
2019-04-03T22:51:58.227Z,8.62
2019-04-03T22:54:47.036Z,10.08
2019-04-03T22:57:35.828Z,9.37
2019-04-03T23:00:43.674Z,10.04
2019-04-03T23:03:33.891Z,10.06
2019-04-03T23:06:16.871Z,9.80
2019-04-03T23:09:27.508Z,9.81
2019-04-03T23:12:16.430Z,9.86
2019-04-03T23:15:08.643Z,9.71
2019-04-03T23:17:56.933Z,9.75
2019-04-03T23:20:45.801Z,9.03
2019-04-03T23:23:53.718Z,9.76
2019-04-03T23:26:42.554Z,9.81
2019-04-03T23:29:31.343Z,9.99
2019-04-03T23:32:20.173Z,10.06
2019-04-03T23:35:09.105Z,10.22
2019-04-03T23:37:57.920Z,10.31
2019-04-03T23:40:47.020Z,8.97
2019-04-03T23:43:35.839Z,10.50
2019-04-03T23:46:24.653Z,10.36
2019-04-03T23:49:13.469Z,10.51
2019-04-03T23:52:02.266Z,9.61
2019-04-03T23:54:51.072Z,10.52
2019-04-03T23:57:40.513Z,10.60
